sensor_id;sensor_type;location;lat;lon;timestamp;P1;durP1;ratioP1;P2;durP2;ratioP2
27706;SDS011;36332;51.384;0.040;2023-04-25T00:00:57;40.92;;;7.68;;
27706;SDS011;36332;51.384;0.040;2023-04-25T00:03:25;28.27;;;6.07;;
27706;SDS011;36332;51.384;0.040;2023-04-25T00:05:53;33.72;;;6.72;;
27706;SDS011;36332;51.384;0.040;2023-04-25T00:08:24;31.35;;;7.03;;
27706;SDS011;36332;51.384;0.040;2023-04-25T00:10:52;34.05;;;6.32;;
27706;SDS011;36332;51.384;0.040;2023-04-25T00:13:25;35.78;;;5.47;;
27706;SDS011;36332;51.384;0.040;2023-04-25T00:15:53;26.27;;;5.95;;
27706;SDS011;36332;51.384;0.040;2023-04-25T00:18:21;29.45;;;6.72;;
27706;SDS011;36332;51.384;0.040;2023-04-25T00:20:49;22.85;;;5.72;;
27706;SDS011;36332;51.384;0.040;2023-04-25T00:23:16;28.35;;;8.82;;
27706;SDS011;36332;51.384;0.040;2023-04-25T00:25:47;34.85;;;9.05;;
27706;SDS011;36332;51.384;0.040;2023-04-25T00:28:15;18.92;;;5.13;;
27706;SDS011;36332;51.384;0.040;2023-04-25T00:30:43;42.67;;;6.65;;
27706;SDS011;36332;51.384;0.040;2023-04-25T00:33:11;25.92;;;5.90;;
27706;SDS011;36332;51.384;0.040;2023-04-25T00:35:39;33.47;;;6.03;;
27706;SDS011;36332;51.384;0.040;2023-04-25T00:38:07;27.77;;;5.32;;
27706;SDS011;36332;51.384;0.040;2023-04-25T00:40:34;34.95;;;8.93;;
27706;SDS011;36332;51.384;0.040;2023-04-25T00:43:02;27.83;;;5.75;;
27706;SDS011;36332;51.384;0.040;2023-04-25T00:45:30;32.72;;;6.18;;
27706;SDS011;36332;51.384;0.040;2023-04-25T00:47:57;25.83;;;5.05;;
27706;SDS011;36332;51.384;0.040;2023-04-25T00:50:25;20.55;;;4.97;;
27706;SDS011;36332;51.384;0.040;2023-04-25T00:52:53;26.20;;;5.05;;
27706;SDS011;36332;51.384;0.040;2023-04-25T00:55:21;22.27;;;4.85;;
27706;SDS011;36332;51.384;0.040;2023-04-25T00:57:49;31.13;;;5.10;;
27706;SDS011;36332;51.384;0.040;2023-04-25T01:00:17;26.27;;;4.75;;
27706;SDS011;36332;51.384;0.040;2023-04-25T01:02:45;28.00;;;5.50;;
27706;SDS011;36332;51.384;0.040;2023-04-25T01:05:14;26.92;;;6.18;;
27706;SDS011;36332;51.384;0.040;2023-04-25T01:07:41;26.05;;;5.05;;
27706;SDS011;36332;51.384;0.040;2023-04-25T01:10:10;30.80;;;5.15;;
27706;SDS011;36332;51.384;0.040;2023-04-25T01:12:45;30.83;;;5.05;;
27706;SDS011;36332;51.384;0.040;2023-04-25T01:15:13;39.85;;;8.23;;
27706;SDS011;36332;51.384;0.040;2023-04-25T01:17:41;23.27;;;4.95;;
27706;SDS011;36332;51.384;0.040;2023-04-25T01:20:11;27.77;;;5.82;;
27706;SDS011;36332;51.384;0.040;2023-04-25T01:22:39;25.50;;;5.13;;
27706;SDS011;36332;51.384;0.040;2023-04-25T01:25:07;19.08;;;4.53;;
27706;SDS011;36332;51.384;0.040;2023-04-25T01:27:36;28.27;;;5.50;;
27706;SDS011;36332;51.384;0.040;2023-04-25T01:30:05;24.27;;;4.28;;
27706;SDS011;36332;51.384;0.040;2023-04-25T01:32:34;20.92;;;4.68;;
27706;SDS011;36332;51.384;0.040;2023-04-25T01:35:06;23.48;;;5.55;;
27706;SDS011;36332;51.384;0.040;2023-04-25T01:40:09;24.88;;;6.55;;
27706;SDS011;36332;51.384;0.040;2023-04-25T01:42:39;25.23;;;3.95;;
27706;SDS011;36332;51.384;0.040;2023-04-25T01:45:08;30.40;;;5.05;;
27706;SDS011;36332;51.384;0.040;2023-04-25T01:47:38;16.60;;;4.53;;
27706;SDS011;36332;51.384;0.040;2023-04-25T01:50:07;24.30;;;6.57;;
27706;SDS011;36332;51.384;0.040;2023-04-25T01:52:36;23.58;;;5.22;;
27706;SDS011;36332;51.384;0.040;2023-04-25T01:55:05;25.67;;;5.50;;
27706;SDS011;36332;51.384;0.040;2023-04-25T01:57:35;28.05;;;4.13;;
27706;SDS011;36332;51.384;0.040;2023-04-25T02:00:04;31.05;;;6.03;;
27706;SDS011;36332;51.384;0.040;2023-04-25T02:02:39;22.52;;;5.30;;
27706;SDS011;36332;51.384;0.040;2023-04-25T02:05:17;18.48;;;4.47;;
27706;SDS011;36332;51.384;0.040;2023-04-25T02:07:45;24.77;;;5.13;;
27706;SDS011;36332;51.384;0.040;2023-04-25T02:10:13;24.75;;;4.78;;
27706;SDS011;36332;51.384;0.040;2023-04-25T02:12:55;16.20;;;4.25;;
27706;SDS011;36332;51.384;0.040;2023-04-25T02:15:36;20.17;;;4.93;;
27706;SDS011;36332;51.384;0.040;2023-04-25T02:18:14;21.60;;;4.57;;
27706;SDS011;36332;51.384;0.040;2023-04-25T02:20:44;29.20;;;4.80;;
27706;SDS011;36332;51.384;0.040;2023-04-25T02:23:12;22.60;;;4.70;;
27706;SDS011;36332;51.384;0.040;2023-04-25T02:25:42;21.05;;;4.43;;
27706;SDS011;36332;51.384;0.040;2023-04-25T02:28:09;17.08;;;4.47;;
27706;SDS011;36332;51.384;0.040;2023-04-25T02:30:37;23.55;;;4.38;;
27706;SDS011;36332;51.384;0.040;2023-04-25T02:33:05;21.40;;;5.03;;
27706;SDS011;36332;51.384;0.040;2023-04-25T02:35:32;18.75;;;5.18;;
27706;SDS011;36332;51.384;0.040;2023-04-25T02:38:00;30.75;;;4.65;;
27706;SDS011;36332;51.384;0.040;2023-04-25T02:40:27;26.92;;;7.60;;
27706;SDS011;36332;51.384;0.040;2023-04-25T02:42:55;18.05;;;4.30;;
27706;SDS011;36332;51.384;0.040;2023-04-25T02:45:25;29.88;;;5.68;;
27706;SDS011;36332;51.384;0.040;2023-04-25T02:47:53;22.30;;;4.32;;
27706;SDS011;36332;51.384;0.040;2023-04-25T02:50:20;20.08;;;5.00;;
27706;SDS011;36332;51.384;0.040;2023-04-25T02:52:48;25.98;;;4.28;;
27706;SDS011;36332;51.384;0.040;2023-04-25T02:55:20;24.85;;;5.10;;
27706;SDS011;36332;51.384;0.040;2023-04-25T02:57:51;24.90;;;4.75;;
27706;SDS011;36332;51.384;0.040;2023-04-25T03:00:30;22.05;;;4.60;;
27706;SDS011;36332;51.384;0.040;2023-04-25T03:02:57;22.55;;;4.13;;
27706;SDS011;36332;51.384;0.040;2023-04-25T03:05:25;23.88;;;4.70;;
27706;SDS011;36332;51.384;0.040;2023-04-25T03:07:53;24.05;;;5.25;;
27706;SDS011;36332;51.384;0.040;2023-04-25T03:10:21;23.02;;;5.88;;
27706;SDS011;36332;51.384;0.040;2023-04-25T03:12:49;28.27;;;6.35;;
27706;SDS011;36332;51.384;0.040;2023-04-25T03:15:17;16.90;;;4.45;;
27706;SDS011;36332;51.384;0.040;2023-04-25T03:17:45;22.80;;;4.88;;
27706;SDS011;36332;51.384;0.040;2023-04-25T03:20:13;14.52;;;3.83;;
27706;SDS011;36332;51.384;0.040;2023-04-25T03:22:41;20.75;;;6.65;;
27706;SDS011;36332;51.384;0.040;2023-04-25T03:25:09;20.20;;;5.03;;
27706;SDS011;36332;51.384;0.040;2023-04-25T03:27:37;22.20;;;4.40;;
27706;SDS011;36332;51.384;0.040;2023-04-25T03:30:06;21.70;;;4.13;;
27706;SDS011;36332;51.384;0.040;2023-04-25T03:32:36;28.92;;;5.47;;
27706;SDS011;36332;51.384;0.040;2023-04-25T03:35:04;19.90;;;4.72;;
27706;SDS011;36332;51.384;0.040;2023-04-25T03:37:32;21.48;;;4.90;;
27706;SDS011;36332;51.384;0.040;2023-04-25T03:40:01;28.20;;;4.25;;
27706;SDS011;36332;51.384;0.040;2023-04-25T03:42:49;28.85;;;4.45;;
27706;SDS011;36332;51.384;0.040;2023-04-25T03:45:18;20.42;;;4.53;;
27706;SDS011;36332;51.384;0.040;2023-04-25T03:47:45;35.10;;;7.95;;
27706;SDS011;36332;51.384;0.040;2023-04-25T03:50:13;18.38;;;4.30;;
27706;SDS011;36332;51.384;0.040;2023-04-25T03:52:41;25.80;;;6.50;;
27706;SDS011;36332;51.384;0.040;2023-04-25T03:55:09;21.73;;;5.57;;
27706;SDS011;36332;51.384;0.040;2023-04-25T03:57:38;18.15;;;4.10;;
27706;SDS011;36332;51.384;0.040;2023-04-25T04:00:06;18.40;;;3.92;;
27706;SDS011;36332;51.384;0.040;2023-04-25T04:02:43;18.63;;;4.68;;
27706;SDS011;36332;51.384;0.040;2023-04-25T04:05:12;39.10;;;5.13;;
27706;SDS011;36332;51.384;0.040;2023-04-25T04:07:46;20.02;;;4.03;;
27706;SDS011;36332;51.384;0.040;2023-04-25T04:10:16;24.17;;;4.50;;
27706;SDS011;36332;51.384;0.040;2023-04-25T04:12:44;20.50;;;3.97;;
27706;SDS011;36332;51.384;0.040;2023-04-25T04:15:12;22.73;;;4.40;;
27706;SDS011;36332;51.384;0.040;2023-04-25T04:17:43;20.58;;;4.47;;
27706;SDS011;36332;51.384;0.040;2023-04-25T04:20:10;23.45;;;4.85;;
27706;SDS011;36332;51.384;0.040;2023-04-25T04:22:39;26.70;;;4.45;;
27706;SDS011;36332;51.384;0.040;2023-04-25T04:25:11;27.25;;;8.48;;
27706;SDS011;36332;51.384;0.040;2023-04-25T04:28:03;23.73;;;4.70;;
27706;SDS011;36332;51.384;0.040;2023-04-25T04:30:54;17.77;;;4.90;;
27706;SDS011;36332;51.384;0.040;2023-04-25T04:33:22;17.92;;;6.22;;
27706;SDS011;36332;51.384;0.040;2023-04-25T04:35:56;13.35;;;4.28;;
27706;SDS011;36332;51.384;0.040;2023-04-25T04:38:23;15.30;;;4.75;;
27706;SDS011;36332;51.384;0.040;2023-04-25T04:40:55;31.23;;;5.90;;
27706;SDS011;36332;51.384;0.040;2023-04-25T04:43:35;23.63;;;5.22;;
27706;SDS011;36332;51.384;0.040;2023-04-25T04:46:35;17.85;;;4.38;;
27706;SDS011;36332;51.384;0.040;2023-04-25T04:49:29;16.15;;;4.63;;
27706;SDS011;36332;51.384;0.040;2023-04-25T04:52:19;30.73;;;5.00;;
27706;SDS011;36332;51.384;0.040;2023-04-25T04:55:03;20.10;;;4.25;;
27706;SDS011;36332;51.384;0.040;2023-04-25T04:57:51;27.67;;;4.88;;
27706;SDS011;36332;51.384;0.040;2023-04-25T05:00:31;20.27;;;4.82;;
27706;SDS011;36332;51.384;0.040;2023-04-25T05:03:29;18.27;;;4.53;;
27706;SDS011;36332;51.384;0.040;2023-04-25T05:06:09;28.27;;;6.32;;
27706;SDS011;36332;51.384;0.040;2023-04-25T05:08:46;25.23;;;5.25;;
27706;SDS011;36332;51.384;0.040;2023-04-25T05:11:25;14.20;;;4.57;;
27706;SDS011;36332;51.384;0.040;2023-04-25T05:14:20;24.60;;;4.28;;
27706;SDS011;36332;51.384;0.040;2023-04-25T05:17:06;25.40;;;5.00;;
27706;SDS011;36332;51.384;0.040;2023-04-25T05:19:55;18.20;;;5.20;;
27706;SDS011;36332;51.384;0.040;2023-04-25T05:22:33;15.00;;;5.00;;
27706;SDS011;36332;51.384;0.040;2023-04-25T05:25:11;11.90;;;4.50;;
27706;SDS011;36332;51.384;0.040;2023-04-25T05:28:00;19.80;;;4.95;;
27706;SDS011;36332;51.384;0.040;2023-04-25T05:30:50;23.38;;;4.80;;
27706;SDS011;36332;51.384;0.040;2023-04-25T05:33:37;23.33;;;5.78;;
27706;SDS011;36332;51.384;0.040;2023-04-25T05:36:05;19.90;;;4.43;;
27706;SDS011;36332;51.384;0.040;2023-04-25T05:38:33;19.90;;;4.43;;
27706;SDS011;36332;51.384;0.040;2023-04-25T05:41:13;34.20;;;5.30;;
27706;SDS011;36332;51.384;0.040;2023-04-25T05:43:48;20.45;;;4.10;;
27706;SDS011;36332;51.384;0.040;2023-04-25T05:46:25;24.30;;;7.10;;
27706;SDS011;36332;51.384;0.040;2023-04-25T05:49:11;11.82;;;3.80;;
27706;SDS011;36332;51.384;0.040;2023-04-25T05:51:58;10.80;;;3.15;;
27706;SDS011;36332;51.384;0.040;2023-04-25T05:54:35;29.58;;;4.60;;
27706;SDS011;36332;51.384;0.040;2023-04-25T05:57:04;14.85;;;3.85;;
27706;SDS011;36332;51.384;0.040;2023-04-25T05:59:32;24.20;;;4.43;;
27706;SDS011;36332;51.384;0.040;2023-04-25T06:02:00;14.68;;;4.40;;
27706;SDS011;36332;51.384;0.040;2023-04-25T06:04:29;22.90;;;4.82;;
27706;SDS011;36332;51.384;0.040;2023-04-25T06:06:57;15.32;;;4.63;;
27706;SDS011;36332;51.384;0.040;2023-04-25T06:09:26;20.83;;;4.18;;
27706;SDS011;36332;51.384;0.040;2023-04-25T06:11:54;18.40;;;4.90;;
27706;SDS011;36332;51.384;0.040;2023-04-25T06:14:21;13.13;;;4.50;;
27706;SDS011;36332;51.384;0.040;2023-04-25T06:16:55;23.63;;;5.97;;
27706;SDS011;36332;51.384;0.040;2023-04-25T06:19:22;21.25;;;5.00;;
27706;SDS011;36332;51.384;0.040;2023-04-25T06:21:50;18.48;;;5.80;;
27706;SDS011;36332;51.384;0.040;2023-04-25T06:24:18;22.13;;;5.30;;
27706;SDS011;36332;51.384;0.040;2023-04-25T06:26:46;19.23;;;4.45;;
27706;SDS011;36332;51.384;0.040;2023-04-25T06:29:15;12.82;;;4.40;;
27706;SDS011;36332;51.384;0.040;2023-04-25T06:31:42;24.95;;;5.05;;
27706;SDS011;36332;51.384;0.040;2023-04-25T06:34:11;27.40;;;4.65;;
27706;SDS011;36332;51.384;0.040;2023-04-25T06:36:41;17.02;;;4.22;;
27706;SDS011;36332;51.384;0.040;2023-04-25T06:39:13;20.38;;;4.97;;
27706;SDS011;36332;51.384;0.040;2023-04-25T06:41:40;21.10;;;5.15;;
27706;SDS011;36332;51.384;0.040;2023-04-25T06:44:15;19.02;;;5.72;;
27706;SDS011;36332;51.384;0.040;2023-04-25T06:46:51;18.00;;;4.55;;
27706;SDS011;36332;51.384;0.040;2023-04-25T06:49:19;17.08;;;3.72;;
27706;SDS011;36332;51.384;0.040;2023-04-25T06:51:47;23.13;;;7.70;;
27706;SDS011;36332;51.384;0.040;2023-04-25T06:54:14;23.27;;;8.38;;
27706;SDS011;36332;51.384;0.040;2023-04-25T06:56:53;21.42;;;5.18;;
27706;SDS011;36332;51.384;0.040;2023-04-25T06:59:21;25.23;;;5.75;;
27706;SDS011;36332;51.384;0.040;2023-04-25T07:01:50;23.77;;;5.70;;
27706;SDS011;36332;51.384;0.040;2023-04-25T07:04:21;12.52;;;3.80;;
27706;SDS011;36332;51.384;0.040;2023-04-25T07:06:53;22.50;;;3.88;;
27706;SDS011;36332;51.384;0.040;2023-04-25T07:09:38;18.50;;;4.20;;
27706;SDS011;36332;51.384;0.040;2023-04-25T07:12:06;22.83;;;4.40;;
27706;SDS011;36332;51.384;0.040;2023-04-25T07:14:34;16.38;;;4.32;;
27706;SDS011;36332;51.384;0.040;2023-04-25T07:17:02;14.20;;;4.68;;
27706;SDS011;36332;51.384;0.040;2023-04-25T07:19:32;20.23;;;4.03;;
27706;SDS011;36332;51.384;0.040;2023-04-25T07:22:01;21.83;;;3.70;;
27706;SDS011;36332;51.384;0.040;2023-04-25T07:24:31;14.75;;;3.53;;
27706;SDS011;36332;51.384;0.040;2023-04-25T07:26:59;18.15;;;3.58;;
27706;SDS011;36332;51.384;0.040;2023-04-25T07:29:46;13.60;;;4.45;;
27706;SDS011;36332;51.384;0.040;2023-04-25T07:32:14;17.90;;;4.28;;
27706;SDS011;36332;51.384;0.040;2023-04-25T07:34:42;19.67;;;7.63;;
27706;SDS011;36332;51.384;0.040;2023-04-25T07:37:10;18.45;;;3.97;;
27706;SDS011;36332;51.384;0.040;2023-04-25T07:39:52;17.98;;;3.55;;
27706;SDS011;36332;51.384;0.040;2023-04-25T07:42:19;17.42;;;4.30;;
27706;SDS011;36332;51.384;0.040;2023-04-25T07:44:48;18.98;;;5.28;;
27706;SDS011;36332;51.384;0.040;2023-04-25T07:47:15;23.42;;;4.53;;
27706;SDS011;36332;51.384;0.040;2023-04-25T07:49:43;13.98;;;4.45;;
27706;SDS011;36332;51.384;0.040;2023-04-25T07:52:12;12.18;;;3.38;;
27706;SDS011;36332;51.384;0.040;2023-04-25T07:54:45;19.02;;;4.05;;
27706;SDS011;36332;51.384;0.040;2023-04-25T07:57:18;15.48;;;3.70;;
27706;SDS011;36332;51.384;0.040;2023-04-25T07:59:48;14.75;;;3.75;;
27706;SDS011;36332;51.384;0.040;2023-04-25T08:02:16;14.65;;;3.92;;
27706;SDS011;36332;51.384;0.040;2023-04-25T08:04:44;21.27;;;4.15;;
27706;SDS011;36332;51.384;0.040;2023-04-25T08:07:16;12.38;;;3.42;;
27706;SDS011;36332;51.384;0.040;2023-04-25T08:09:54;12.52;;;3.40;;
27706;SDS011;36332;51.384;0.040;2023-04-25T08:12:26;18.98;;;3.40;;
27706;SDS011;36332;51.384;0.040;2023-04-25T08:14:53;12.43;;;3.08;;
27706;SDS011;36332;51.384;0.040;2023-04-25T08:17:23;12.77;;;3.70;;
27706;SDS011;36332;51.384;0.040;2023-04-25T08:19:51;9.95;;;3.17;;
27706;SDS011;36332;51.384;0.040;2023-04-25T08:22:25;23.52;;;4.05;;
27706;SDS011;36332;51.384;0.040;2023-04-25T08:25:07;18.10;;;3.88;;
27706;SDS011;36332;51.384;0.040;2023-04-25T08:27:35;13.27;;;3.15;;
27706;SDS011;36332;51.384;0.040;2023-04-25T08:30:03;11.57;;;3.55;;
27706;SDS011;36332;51.384;0.040;2023-04-25T08:32:31;16.42;;;3.22;;
27706;SDS011;36332;51.384;0.040;2023-04-25T08:35:19;15.23;;;4.18;;
27706;SDS011;36332;51.384;0.040;2023-04-25T08:37:47;7.95;;;2.90;;
27706;SDS011;36332;51.384;0.040;2023-04-25T08:40:16;15.60;;;3.20;;
27706;SDS011;36332;51.384;0.040;2023-04-25T08:42:44;16.25;;;3.50;;
27706;SDS011;36332;51.384;0.040;2023-04-25T08:45:13;17.55;;;2.40;;
27706;SDS011;36332;51.384;0.040;2023-04-25T08:47:42;17.30;;;4.45;;
27706;SDS011;36332;51.384;0.040;2023-04-25T08:50:12;11.57;;;2.10;;
27706;SDS011;36332;51.384;0.040;2023-04-25T08:52:43;16.52;;;2.50;;
27706;SDS011;36332;51.384;0.040;2023-04-25T08:55:13;11.70;;;2.78;;
27706;SDS011;36332;51.384;0.040;2023-04-25T08:57:42;9.75;;;2.72;;
27706;SDS011;36332;51.384;0.040;2023-04-25T09:00:12;12.50;;;2.58;;
27706;SDS011;36332;51.384;0.040;2023-04-25T09:02:43;12.77;;;2.90;;
27706;SDS011;36332;51.384;0.040;2023-04-25T09:05:12;11.05;;;3.13;;
27706;SDS011;36332;51.384;0.040;2023-04-25T09:07:41;21.63;;;4.55;;
27706;SDS011;36332;51.384;0.040;2023-04-25T09:10:08;9.48;;;2.72;;
27706;SDS011;36332;51.384;0.040;2023-04-25T09:12:38;5.82;;;2.60;;
27706;SDS011;36332;51.384;0.040;2023-04-25T09:15:12;11.02;;;2.58;;
27706;SDS011;36332;51.384;0.040;2023-04-25T09:17:54;10.23;;;2.85;;
27706;SDS011;36332;51.384;0.040;2023-04-25T09:20:31;15.77;;;2.83;;
27706;SDS011;36332;51.384;0.040;2023-04-25T09:23:04;17.85;;;3.03;;
27706;SDS011;36332;51.384;0.040;2023-04-25T09:25:35;11.15;;;2.42;;
27706;SDS011;36332;51.384;0.040;2023-04-25T09:28:07;10.25;;;2.50;;
27706;SDS011;36332;51.384;0.040;2023-04-25T09:30:36;13.13;;;2.63;;
27706;SDS011;36332;51.384;0.040;2023-04-25T09:33:10;11.60;;;2.80;;
27706;SDS011;36332;51.384;0.040;2023-04-25T09:35:43;10.18;;;2.58;;
27706;SDS011;36332;51.384;0.040;2023-04-25T09:38:24;11.65;;;2.40;;
27706;SDS011;36332;51.384;0.040;2023-04-25T09:41:01;8.25;;;2.53;;
27706;SDS011;36332;51.384;0.040;2023-04-25T09:43:38;11.02;;;2.85;;
27706;SDS011;36332;51.384;0.040;2023-04-25T09:46:07;12.10;;;2.53;;
27706;SDS011;36332;51.384;0.040;2023-04-25T09:48:50;9.52;;;2.67;;
27706;SDS011;36332;51.384;0.040;2023-04-25T09:51:31;15.20;;;2.83;;
27706;SDS011;36332;51.384;0.040;2023-04-25T09:53:59;10.90;;;2.10;;
27706;SDS011;36332;51.384;0.040;2023-04-25T09:56:47;6.78;;;2.08;;
27706;SDS011;36332;51.384;0.040;2023-04-25T09:59:21;7.35;;;1.80;;
27706;SDS011;36332;51.384;0.040;2023-04-25T10:01:50;9.70;;;2.63;;
27706;SDS011;36332;51.384;0.040;2023-04-25T10:04:27;10.52;;;2.20;;
27706;SDS011;36332;51.384;0.040;2023-04-25T10:07:12;6.53;;;2.13;;
27706;SDS011;36332;51.384;0.040;2023-04-25T10:09:44;10.30;;;2.45;;
27706;SDS011;36332;51.384;0.040;2023-04-25T10:12:16;9.90;;;2.80;;
27706;SDS011;36332;51.384;0.040;2023-04-25T10:14:44;9.95;;;3.15;;
27706;SDS011;36332;51.384;0.040;2023-04-25T10:17:13;10.60;;;2.95;;
27706;SDS011;36332;51.384;0.040;2023-04-25T10:19:41;8.30;;;2.88;;
27706;SDS011;36332;51.384;0.040;2023-04-25T10:22:17;7.28;;;2.20;;
27706;SDS011;36332;51.384;0.040;2023-04-25T10:24:46;11.70;;;2.00;;
27706;SDS011;36332;51.384;0.040;2023-04-25T10:27:14;12.95;;;2.78;;
27706;SDS011;36332;51.384;0.040;2023-04-25T10:29:41;6.07;;;1.95;;
27706;SDS011;36332;51.384;0.040;2023-04-25T10:32:12;12.23;;;2.72;;
27706;SDS011;36332;51.384;0.040;2023-04-25T10:34:40;6.03;;;2.10;;
27706;SDS011;36332;51.384;0.040;2023-04-25T10:37:11;6.57;;;2.00;;
27706;SDS011;36332;51.384;0.040;2023-04-25T10:39:39;8.90;;;2.20;;
27706;SDS011;36332;51.384;0.040;2023-04-25T10:42:08;8.40;;;2.15;;
27706;SDS011;36332;51.384;0.040;2023-04-25T10:44:39;10.40;;;2.22;;
27706;SDS011;36332;51.384;0.040;2023-04-25T10:47:07;10.43;;;2.42;;
27706;SDS011;36332;51.384;0.040;2023-04-25T10:49:45;7.40;;;2.00;;
27706;SDS011;36332;51.384;0.040;2023-04-25T10:52:19;11.95;;;2.72;;
27706;SDS011;36332;51.384;0.040;2023-04-25T10:54:54;8.43;;;1.92;;
27706;SDS011;36332;51.384;0.040;2023-04-25T10:59:59;10.05;;;2.17;;
27706;SDS011;36332;51.384;0.040;2023-04-25T11:02:32;6.28;;;1.60;;
27706;SDS011;36332;51.384;0.040;2023-04-25T11:05:04;8.93;;;2.08;;
27706;SDS011;36332;51.384;0.040;2023-04-25T11:10:18;4.32;;;2.00;;
27706;SDS011;36332;51.384;0.040;2023-04-25T11:12:46;6.03;;;1.88;;
27706;SDS011;36332;51.384;0.040;2023-04-25T11:15:14;5.10;;;1.80;;
27706;SDS011;36332;51.384;0.040;2023-04-25T11:17:42;3.85;;;1.85;;
27706;SDS011;36332;51.384;0.040;2023-04-25T11:20:12;9.40;;;1.75;;
27706;SDS011;36332;51.384;0.040;2023-04-25T11:22:41;4.22;;;1.75;;
27706;SDS011;36332;51.384;0.040;2023-04-25T11:25:13;6.20;;;1.70;;
27706;SDS011;36332;51.384;0.040;2023-04-25T11:27:52;10.20;;;2.88;;
27706;SDS011;36332;51.384;0.040;2023-04-25T11:30:20;9.27;;;2.97;;
27706;SDS011;36332;51.384;0.040;2023-04-25T11:32:49;7.78;;;2.38;;
27706;SDS011;36332;51.384;0.040;2023-04-25T11:35:17;7.95;;;2.40;;
27706;SDS011;36332;51.384;0.040;2023-04-25T11:37:50;12.60;;;3.95;;
27706;SDS011;36332;51.384;0.040;2023-04-25T11:40:18;7.63;;;2.83;;
27706;SDS011;36332;51.384;0.040;2023-04-25T11:42:46;8.98;;;3.78;;
27706;SDS011;36332;51.384;0.040;2023-04-25T11:45:14;8.05;;;2.90;;
27706;SDS011;36332;51.384;0.040;2023-04-25T11:47:42;9.05;;;3.17;;
27706;SDS011;36332;51.384;0.040;2023-04-25T11:50:10;10.63;;;2.97;;
27706;SDS011;36332;51.384;0.040;2023-04-25T11:52:41;8.50;;;2.38;;
27706;SDS011;36332;51.384;0.040;2023-04-25T11:55:14;9.15;;;2.63;;
27706;SDS011;36332;51.384;0.040;2023-04-25T11:57:44;6.22;;;2.17;;
27706;SDS011;36332;51.384;0.040;2023-04-25T12:00:15;7.03;;;2.72;;
27706;SDS011;36332;51.384;0.040;2023-04-25T12:02:46;5.15;;;2.20;;
27706;SDS011;36332;51.384;0.040;2023-04-25T12:05:15;6.43;;;2.38;;
27706;SDS011;36332;51.384;0.040;2023-04-25T12:08:08;10.25;;;2.55;;
27706;SDS011;36332;51.384;0.040;2023-04-25T12:10:38;8.15;;;2.97;;
27706;SDS011;36332;51.384;0.040;2023-04-25T12:15:54;13.55;;;2.83;;
27706;SDS011;36332;51.384;0.040;2023-04-25T12:18:24;8.95;;;3.28;;
27706;SDS011;36332;51.384;0.040;2023-04-25T12:20:54;10.23;;;3.15;;
27706;SDS011;36332;51.384;0.040;2023-04-25T12:23:28;7.53;;;2.70;;
27706;SDS011;36332;51.384;0.040;2023-04-25T12:25:57;5.35;;;2.63;;
27706;SDS011;36332;51.384;0.040;2023-04-25T12:28:25;10.88;;;3.45;;
27706;SDS011;36332;51.384;0.040;2023-04-25T12:31:01;7.38;;;2.67;;
27706;SDS011;36332;51.384;0.040;2023-04-25T12:33:34;16.20;;;3.03;;
27706;SDS011;36332;51.384;0.040;2023-04-25T12:36:04;6.97;;;2.83;;
27706;SDS011;36332;51.384;0.040;2023-04-25T12:38:39;8.30;;;2.95;;
27706;SDS011;36332;51.384;0.040;2023-04-25T12:41:09;11.30;;;3.42;;
27706;SDS011;36332;51.384;0.040;2023-04-25T12:43:37;7.25;;;2.72;;
27706;SDS011;36332;51.384;0.040;2023-04-25T12:46:05;7.75;;;2.90;;
27706;SDS011;36332;51.384;0.040;2023-04-25T12:48:33;8.68;;;2.65;;
27706;SDS011;36332;51.384;0.040;2023-04-25T12:51:00;4.05;;;2.55;;
27706;SDS011;36332;51.384;0.040;2023-04-25T12:53:28;10.50;;;2.38;;
27706;SDS011;36332;51.384;0.040;2023-04-25T12:55:56;6.25;;;2.97;;
27706;SDS011;36332;51.384;0.040;2023-04-25T12:58:24;5.75;;;2.72;;
27706;SDS011;36332;51.384;0.040;2023-04-25T13:00:52;9.38;;;2.85;;
27706;SDS011;36332;51.384;0.040;2023-04-25T13:03:20;9.30;;;2.67;;
27706;SDS011;36332;51.384;0.040;2023-04-25T13:05:49;6.97;;;3.15;;
27706;SDS011;36332;51.384;0.040;2023-04-25T13:08:19;4.95;;;2.65;;
27706;SDS011;36332;51.384;0.040;2023-04-25T13:10:47;6.80;;;3.00;;
27706;SDS011;36332;51.384;0.040;2023-04-25T13:13:15;9.23;;;2.60;;
27706;SDS011;36332;51.384;0.040;2023-04-25T13:15:49;9.88;;;2.15;;
27706;SDS011;36332;51.384;0.040;2023-04-25T13:18:17;9.35;;;3.05;;
27706;SDS011;36332;51.384;0.040;2023-04-25T13:20:44;6.35;;;2.38;;
27706;SDS011;36332;51.384;0.040;2023-04-25T13:23:13;5.45;;;2.45;;
27706;SDS011;36332;51.384;0.040;2023-04-25T13:25:40;8.95;;;3.08;;
27706;SDS011;36332;51.384;0.040;2023-04-25T13:28:08;7.65;;;3.15;;
27706;SDS011;36332;51.384;0.040;2023-04-25T13:30:35;9.18;;;2.63;;
27706;SDS011;36332;51.384;0.040;2023-04-25T13:33:04;7.72;;;2.28;;
27706;SDS011;36332;51.384;0.040;2023-04-25T13:35:34;10.18;;;3.15;;
27706;SDS011;36332;51.384;0.040;2023-04-25T13:38:02;6.60;;;2.30;;
27706;SDS011;36332;51.384;0.040;2023-04-25T13:40:31;12.40;;;2.60;;
27706;SDS011;36332;51.384;0.040;2023-04-25T13:42:59;10.93;;;2.75;;
27706;SDS011;36332;51.384;0.040;2023-04-25T13:45:26;7.22;;;2.60;;
27706;SDS011;36332;51.384;0.040;2023-04-25T13:47:55;5.40;;;2.33;;
27706;SDS011;36332;51.384;0.040;2023-04-25T13:50:23;7.35;;;2.10;;
27706;SDS011;36332;51.384;0.040;2023-04-25T13:52:51;7.35;;;2.38;;
27706;SDS011;36332;51.384;0.040;2023-04-25T13:55:18;6.13;;;2.25;;
27706;SDS011;36332;51.384;0.040;2023-04-25T13:57:46;8.60;;;3.28;;
27706;SDS011;36332;51.384;0.040;2023-04-25T14:00:14;10.32;;;2.67;;
27706;SDS011;36332;51.384;0.040;2023-04-25T14:02:41;7.50;;;2.65;;
27706;SDS011;36332;51.384;0.040;2023-04-25T14:05:09;4.88;;;2.03;;
27706;SDS011;36332;51.384;0.040;2023-04-25T14:07:37;5.60;;;2.53;;
27706;SDS011;36332;51.384;0.040;2023-04-25T14:10:04;10.25;;;2.85;;
27706;SDS011;36332;51.384;0.040;2023-04-25T14:12:33;5.82;;;2.00;;
27706;SDS011;36332;51.384;0.040;2023-04-25T14:15:00;7.90;;;2.80;;
27706;SDS011;36332;51.384;0.040;2023-04-25T14:17:28;10.15;;;2.78;;
27706;SDS011;36332;51.384;0.040;2023-04-25T14:19:55;7.63;;;2.47;;
27706;SDS011;36332;51.384;0.040;2023-04-25T14:22:23;8.90;;;3.10;;
27706;SDS011;36332;51.384;0.040;2023-04-25T14:24:51;9.95;;;2.88;;
27706;SDS011;36332;51.384;0.040;2023-04-25T14:27:19;7.68;;;2.78;;
27706;SDS011;36332;51.384;0.040;2023-04-25T14:29:47;4.75;;;2.15;;
27706;SDS011;36332;51.384;0.040;2023-04-25T14:32:15;5.57;;;2.55;;
27706;SDS011;36332;51.384;0.040;2023-04-25T14:34:43;17.15;;;3.63;;
27706;SDS011;36332;51.384;0.040;2023-04-25T14:37:11;6.00;;;2.50;;
27706;SDS011;36332;51.384;0.040;2023-04-25T14:39:38;7.78;;;2.80;;
27706;SDS011;36332;51.384;0.040;2023-04-25T14:42:06;4.15;;;2.30;;
27706;SDS011;36332;51.384;0.040;2023-04-25T14:44:33;10.35;;;3.13;;
27706;SDS011;36332;51.384;0.040;2023-04-25T14:47:01;15.38;;;3.35;;
27706;SDS011;36332;51.384;0.040;2023-04-25T14:49:29;5.30;;;2.42;;
27706;SDS011;36332;51.384;0.040;2023-04-25T14:51:56;5.70;;;2.50;;
27706;SDS011;36332;51.384;0.040;2023-04-25T14:54:23;17.58;;;3.65;;
27706;SDS011;36332;51.384;0.040;2023-04-25T14:56:52;9.70;;;2.88;;
27706;SDS011;36332;51.384;0.040;2023-04-25T14:59:19;8.05;;;2.85;;
27706;SDS011;36332;51.384;0.040;2023-04-25T15:01:47;8.65;;;2.92;;
27706;SDS011;36332;51.384;0.040;2023-04-25T15:04:16;8.02;;;2.50;;
27706;SDS011;36332;51.384;0.040;2023-04-25T15:06:44;11.70;;;2.90;;
27706;SDS011;36332;51.384;0.040;2023-04-25T15:09:12;8.65;;;3.30;;
27706;SDS011;36332;51.384;0.040;2023-04-25T15:11:40;12.45;;;3.20;;